Terminal Aerodrome Forecast
Issued by NWS Portland, OR

Home | Current Version | Previous Version | Text Only | Print | Product List | Glossary On
Versions: 1 2 3 4 5 6 7 8 9 10 11 12 13 14 15 16 17 18 19 20 21 22 23 24 25 26 27 28 29 30 31 32 33 34 35 36 37 38
000
FTUS46 KPQR 211451 AAA
TAFSLE
TAF AMD
KSLE 211451Z 2115/2212 19009KT P6SM -RA SCT025 BKN040 OVC060
     FM212000 24011KT P6SM -SHRA BKN040 BKN060
     FM220400 28006KT P6SM VCSH SCT035 OVC050=

USA.gov is the U.S. government's official web portal to all federal, state and local government web resources and services.